createdAt,value
2018-07-26T00:00:33.159Z,101241.08
2018-07-26T00:03:01.812Z,101247.51
2018-07-26T00:05:30.427Z,101245.89
2018-07-26T00:07:59.795Z,101247.84
2018-07-26T00:10:28.318Z,101243.66
2018-07-26T00:12:56.926Z,101247.30
2018-07-26T00:15:25.587Z,101242.18
2018-07-26T00:17:54.086Z,101240.59
2018-07-26T00:20:22.714Z,101246.05
2018-07-26T00:22:51.322Z,101249.77
2018-07-26T00:25:19.979Z,101243.81
2018-07-26T00:27:48.519Z,101247.92
2018-07-26T00:30:18.019Z,101254.31
2018-07-26T00:32:46.649Z,101254.82
2018-07-26T00:35:15.267Z,101252.26
2018-07-26T00:37:43.917Z,101256.48
2018-07-26T00:40:12.603Z,101260.48
2018-07-26T00:42:41.230Z,101262.76
2018-07-26T00:45:09.824Z,101262.54
2018-07-26T00:47:38.525Z,101263.66
2018-07-26T00:50:07.241Z,101262.28
2018-07-26T00:52:35.927Z,101256.73
2018-07-26T00:55:04.665Z,101260.13
2018-07-26T00:57:33.378Z,101264.63
2018-07-26T01:00:01.983Z,101266.44
2018-07-26T01:02:30.502Z,101272.75
2018-07-26T01:04:59.132Z,101278.09
2018-07-26T01:07:27.731Z,101273.11
2018-07-26T01:09:56.355Z,101274.81
2018-07-26T01:12:25.000Z,101274.81
2018-07-26T01:14:53.889Z,101261.17
2018-07-26T01:17:22.386Z,101277.87
2018-07-26T01:19:51.158Z,101274.45
2018-07-26T01:22:19.952Z,101276.00
2018-07-26T01:24:48.462Z,101275.24
2018-07-26T01:27:17.111Z,101279.36
2018-07-26T01:29:45.610Z,101276.07
2018-07-26T01:32:14.318Z,101286.97
2018-07-26T01:34:42.963Z,101284.52
2018-07-26T01:37:11.597Z,101289.09
2018-07-26T01:39:40.182Z,101288.44
2018-07-26T01:42:08.919Z,101283.42
2018-07-26T01:44:37.499Z,101281.84
2018-07-26T01:47:06.186Z,101280.24
2018-07-26T01:49:34.874Z,101276.92
2018-07-26T01:52:03.455Z,101290.38
2018-07-26T01:54:32.050Z,101283.34
2018-07-26T01:57:00.722Z,101278.97
2018-07-26T01:59:29.418Z,101284.31
2018-07-26T02:01:58.042Z,101285.25
2018-07-26T02:04:26.674Z,101285.36
2018-07-26T02:06:55.360Z,101283.00
2018-07-26T02:09:23.903Z,101280.33
2018-07-26T02:11:52.524Z,101283.22
2018-07-26T02:14:26.432Z,101287.92
2018-07-26T02:16:55.118Z,101284.61
2018-07-26T02:19:23.906Z,101277.78
2018-07-26T02:21:52.462Z,101276.05
2018-07-26T02:24:21.007Z,101285.99
2018-07-26T02:26:49.552Z,101289.59
2018-07-26T02:29:18.035Z,101293.41
2018-07-26T02:31:46.821Z,101288.18
2018-07-26T02:34:15.443Z,101292.18
2018-07-26T02:36:44.132Z,101291.92
2018-07-26T02:39:12.737Z,101288.13
2018-07-26T02:41:41.272Z,101296.23
2018-07-26T02:44:09.893Z,101295.97
2018-07-26T02:46:38.389Z,101306.74
2018-07-26T02:49:06.951Z,101302.08
2018-07-26T02:51:35.531Z,101307.98
2018-07-26T02:54:04.153Z,101303.63
2018-07-26T02:56:32.736Z,101298.49
2018-07-26T02:59:01.368Z,101298.70
2018-07-26T03:01:29.917Z,101300.59
2018-07-26T03:03:59.631Z,101303.27
2018-07-26T03:06:28.255Z,101302.53
2018-07-26T03:08:56.863Z,101303.47
2018-07-26T03:11:25.419Z,101303.57
2018-07-26T03:13:54.004Z,101304.07
2018-07-26T03:16:22.623Z,101296.54
2018-07-26T03:18:51.245Z,101299.67
2018-07-26T03:21:20.408Z,101300.17
2018-07-26T03:23:49.010Z,101295.67
2018-07-26T03:26:17.602Z,101297.00
2018-07-26T03:28:46.100Z,101300.08
2018-07-26T03:31:14.655Z,101297.41
2018-07-26T03:33:43.228Z,101299.11
2018-07-26T03:36:11.924Z,101297.20
2018-07-26T03:38:40.579Z,101290.91
2018-07-26T03:41:09.098Z,101295.66
2018-07-26T03:43:37.754Z,101291.45
2018-07-26T03:46:06.416Z,101289.52
2018-07-26T03:48:34.963Z,101291.05
2018-07-26T03:51:03.680Z,101301.52
2018-07-26T03:53:32.274Z,101299.58
2018-07-26T03:56:01.614Z,101303.00
2018-07-26T03:58:30.293Z,101304.60
2018-07-26T04:00:58.878Z,101315.93
2018-07-26T04:03:27.530Z,101312.08
2018-07-26T04:05:56.144Z,101313.61
2018-07-26T04:08:24.829Z,101311.49
2018-07-26T04:10:53.339Z,101313.17
2018-07-26T04:13:21.944Z,101309.48
2018-07-26T04:15:50.578Z,101315.96
2018-07-26T04:18:19.183Z,101316.34
2018-07-26T04:20:47.793Z,101311.84
2018-07-26T04:23:16.415Z,101315.55
2018-07-26T04:25:45.039Z,101310.31
2018-07-26T04:28:13.548Z,101318.40
2018-07-26T04:30:42.091Z,101317.55
2018-07-26T04:33:10.659Z,101316.66
2018-07-26T04:35:39.344Z,101319.30
2018-07-26T04:38:07.876Z,101323.36
2018-07-26T04:40:36.447Z,101323.08
2018-07-26T04:43:05.113Z,101321.30
2018-07-26T04:45:33.767Z,101321.37
2018-07-26T04:48:02.361Z,101318.72
2018-07-26T04:50:31.048Z,101324.28
2018-07-26T04:52:59.629Z,101321.14
2018-07-26T04:55:28.212Z,101328.98
2018-07-26T04:57:56.738Z,101324.38
2018-07-26T05:00:25.254Z,101324.77
2018-07-26T05:02:53.859Z,101325.27
2018-07-26T05:05:22.578Z,101329.78
2018-07-26T05:07:51.229Z,101329.41
2018-07-26T05:10:20.222Z,101328.84
2018-07-26T05:12:48.809Z,101329.56
2018-07-26T05:15:17.387Z,101331.86
2018-07-26T05:17:46.073Z,101332.95
2018-07-26T05:20:14.656Z,101337.09
2018-07-26T05:22:43.290Z,101336.09
2018-07-26T05:25:11.925Z,101337.64
2018-07-26T05:27:40.517Z,101340.56
2018-07-26T05:30:09.071Z,101343.48
2018-07-26T05:32:37.673Z,101341.98
2018-07-26T05:35:07.280Z,101347.84
2018-07-26T05:37:35.919Z,101341.70
2018-07-26T05:40:05.469Z,101341.80
2018-07-26T05:42:35.250Z,101346.19
2018-07-26T05:45:05.171Z,101342.34
2018-07-26T05:47:33.882Z,101352.57
2018-07-26T05:50:02.715Z,101354.12
2018-07-26T05:52:31.456Z,101355.52
2018-07-26T05:55:00.143Z,101351.83
2018-07-26T05:57:28.873Z,101354.48
2018-07-26T05:59:57.408Z,101358.84
2018-07-26T06:02:25.993Z,101352.10
2018-07-26T06:04:54.519Z,101347.62
2018-07-26T06:07:23.263Z,101351.34
2018-07-26T06:09:51.845Z,101353.62
2018-07-26T06:12:20.476Z,101355.44
2018-07-26T06:14:49.112Z,101357.59
2018-07-26T06:17:17.746Z,101362.42
2018-07-26T06:19:46.207Z,101363.23
2018-07-26T06:22:14.860Z,101372.34
2018-07-26T06:24:43.650Z,101369.17
2018-07-26T06:27:12.199Z,101364.45
2018-07-26T06:29:40.738Z,101370.02
2018-07-26T06:32:09.742Z,101370.09
2018-07-26T06:34:38.433Z,101377.38
2018-07-26T06:37:07.319Z,101377.56
2018-07-26T06:39:36.024Z,101381.33
2018-07-26T06:42:04.701Z,101381.05
2018-07-26T06:44:33.278Z,101379.40
2018-07-26T06:47:02.064Z,101384.95
2018-07-26T06:49:30.619Z,101382.98
2018-07-26T06:51:59.209Z,101377.05
2018-07-26T06:54:28.389Z,101384.43
2018-07-26T06:56:57.068Z,101391.58
2018-07-26T06:59:25.651Z,101393.50
2018-07-26T07:01:54.753Z,101401.23
2018-07-26T07:04:23.842Z,101399.98
2018-07-26T07:06:52.936Z,101397.66
2018-07-26T07:09:21.520Z,101391.08
2018-07-26T07:11:50.309Z,101390.84
2018-07-26T07:14:19.207Z,101389.94
2018-07-26T07:16:47.714Z,101390.09
2018-07-26T07:19:16.302Z,101388.80
2018-07-26T07:21:45.050Z,101398.42
2018-07-26T07:24:18.138Z,101400.35
2018-07-26T07:26:46.706Z,101401.90
2018-07-26T07:29:15.331Z,101398.77
2018-07-26T07:31:43.937Z,101396.51
2018-07-26T07:34:12.624Z,101402.30
2018-07-26T07:36:41.258Z,101390.39
2018-07-26T07:39:11.941Z,101389.95
2018-07-26T07:41:40.846Z,101394.97
2018-07-26T07:44:10.041Z,101393.64
2018-07-26T07:46:39.345Z,101390.64
2018-07-26T07:49:08.366Z,101393.59
2018-07-26T07:51:36.904Z,101394.78
2018-07-26T07:54:05.514Z,101396.09
2018-07-26T07:56:34.120Z,101390.11
2018-07-26T07:59:02.805Z,101393.61
2018-07-26T08:01:31.291Z,101391.38
2018-07-26T08:03:59.803Z,101398.16
2018-07-26T08:06:28.387Z,101397.38
2018-07-26T08:08:57.032Z,101397.27
2018-07-26T08:11:25.675Z,101401.06
2018-07-26T08:13:54.300Z,101401.52
2018-07-26T08:16:22.798Z,101401.62
2018-07-26T08:18:51.465Z,101401.02
2018-07-26T08:21:20.165Z,101406.95
2018-07-26T08:23:48.735Z,101406.80
2018-07-26T08:26:17.727Z,101405.52
2018-07-26T08:28:46.251Z,101404.20
2018-07-26T08:31:15.446Z,101396.80
2018-07-26T08:33:44.091Z,101404.98
2018-07-26T08:36:12.707Z,101400.80
2018-07-26T08:38:41.287Z,101406.13
2018-07-26T08:41:09.902Z,101403.30
2018-07-26T08:43:38.595Z,101411.66
2018-07-26T08:46:07.251Z,101412.73
2018-07-26T08:48:35.995Z,101419.20
2018-07-26T08:51:04.663Z,101422.61
2018-07-26T08:53:33.269Z,101421.63
2018-07-26T08:56:01.872Z,101433.70
2018-07-26T08:58:30.456Z,101422.06
2018-07-26T09:00:59.762Z,101425.59
2018-07-26T09:03:28.313Z,101428.61
2018-07-26T09:05:56.923Z,101441.32
2018-07-26T09:08:25.581Z,101429.44
2018-07-26T09:10:54.194Z,101430.73
2018-07-26T09:13:22.934Z,101431.52
2018-07-26T09:15:51.745Z,101430.90
2018-07-26T09:18:20.266Z,101424.25
2018-07-26T09:20:48.905Z,101422.56
2018-07-26T09:23:17.693Z,101422.92
2018-07-26T09:25:46.276Z,101424.34
2018-07-26T09:28:15.015Z,101427.39
2018-07-26T09:30:43.544Z,101431.50
2018-07-26T09:33:12.095Z,101436.83
2018-07-26T09:35:40.704Z,101429.99
2018-07-26T09:38:09.346Z,101433.19
2018-07-26T09:40:37.874Z,101427.47
2018-07-26T09:43:06.868Z,101426.13
2018-07-26T09:45:35.553Z,101427.88
2018-07-26T09:48:04.240Z,101435.74
2018-07-26T09:50:32.747Z,101435.36
2018-07-26T09:53:01.405Z,101435.74
2018-07-26T09:55:30.007Z,101433.10
2018-07-26T09:57:58.635Z,101435.81
2018-07-26T10:00:32.377Z,101436.19
2018-07-26T10:03:00.959Z,101435.19
2018-07-26T10:05:29.559Z,101427.55
2018-07-26T10:07:58.227Z,101437.48
2018-07-26T10:10:26.819Z,101435.51
2018-07-26T10:12:55.428Z,101432.16
2018-07-26T10:15:24.003Z,101431.56
2018-07-26T10:17:52.615Z,101437.89
2018-07-26T10:20:21.270Z,101441.62
2018-07-26T10:22:49.932Z,101441.69
2018-07-26T10:25:18.567Z,101439.38
2018-07-26T10:27:47.149Z,101430.61
2018-07-26T10:30:15.830Z,101439.94
2018-07-26T10:32:45.284Z,101443.84
2018-07-26T10:35:13.973Z,101437.77
2018-07-26T10:37:42.576Z,101442.49
2018-07-26T10:40:11.195Z,101437.44
2018-07-26T10:42:39.821Z,101442.58
2018-07-26T10:45:08.404Z,101439.98
2018-07-26T10:47:36.995Z,101436.50
2018-07-26T10:50:08.263Z,101442.79
2018-07-26T10:52:36.866Z,101439.26
2018-07-26T10:55:06.095Z,101440.25
2018-07-26T10:57:35.871Z,101447.19
2018-07-26T11:00:05.961Z,101445.99
2018-07-26T11:02:34.487Z,101444.30
2018-07-26T11:05:03.828Z,101452.11
2018-07-26T11:07:32.409Z,101457.86
2018-07-26T11:10:00.951Z,101451.45
2018-07-26T11:12:29.494Z,101456.92
2018-07-26T11:15:06.596Z,101451.01
2018-07-26T11:17:35.163Z,101459.34
2018-07-26T11:20:03.890Z,101458.65
2018-07-26T11:22:32.434Z,101465.06
2018-07-26T11:25:01.092Z,101456.77
2018-07-26T11:27:29.649Z,101453.52
2018-07-26T11:29:58.246Z,101456.59
2018-07-26T11:32:26.856Z,101462.75
2018-07-26T11:34:55.458Z,101456.27
2018-07-26T11:37:24.106Z,101454.22
2018-07-26T11:39:52.750Z,101453.23
2018-07-26T11:42:21.384Z,101455.28
2018-07-26T11:44:50.063Z,101458.34
2018-07-26T11:47:19.438Z,101452.76
2018-07-26T11:49:47.959Z,101461.23
2018-07-26T11:52:17.038Z,101462.75
2018-07-26T11:54:46.151Z,101463.41
2018-07-26T11:57:14.807Z,101452.27
2018-07-26T11:59:43.504Z,101458.05
2018-07-26T12:02:12.790Z,101459.38
2018-07-26T12:04:41.899Z,101465.85
2018-07-26T12:07:10.511Z,101465.82
2018-07-26T12:09:39.935Z,101460.40
2018-07-26T12:12:09.523Z,101455.70
2018-07-26T12:14:38.578Z,101462.11
2018-07-26T12:17:07.210Z,101466.16
2018-07-26T12:19:36.046Z,101474.29
2018-07-26T12:22:04.899Z,101467.48
2018-07-26T12:24:33.530Z,101464.44
2018-07-26T12:27:02.186Z,101473.59
2018-07-26T12:29:31.208Z,101468.50
2018-07-26T12:31:59.847Z,101465.13
2018-07-26T12:34:28.784Z,101459.70
2018-07-26T12:36:57.927Z,101468.17
2018-07-26T12:39:26.508Z,101465.13
2018-07-26T12:41:55.064Z,101463.11
2018-07-26T12:44:23.675Z,101462.48
2018-07-26T12:46:52.159Z,101460.11
2018-07-26T12:49:20.707Z,101466.91
2018-07-26T12:51:49.375Z,101464.55
2018-07-26T12:54:18.062Z,101465.22
2018-07-26T12:56:46.566Z,101459.80
2018-07-26T12:59:15.067Z,101454.03
2018-07-26T13:01:43.633Z,101460.46
2018-07-26T13:04:12.239Z,101465.20
2018-07-26T13:06:40.822Z,101468.25
2018-07-26T13:09:10.656Z,101470.27
2018-07-26T13:11:39.270Z,101458.75
2018-07-26T13:14:08.780Z,101450.63
2018-07-26T13:16:37.458Z,101460.13
2018-07-26T13:19:06.144Z,101452.31
2018-07-26T13:21:35.396Z,101446.39
2018-07-26T13:24:03.930Z,101442.66
2018-07-26T13:26:32.425Z,101443.02
2018-07-26T13:29:01.049Z,101446.08
2018-07-26T13:31:29.671Z,101438.41
2018-07-26T13:33:58.255Z,101445.22
2018-07-26T13:36:26.831Z,101445.91
2018-07-26T13:38:55.461Z,101440.27
2018-07-26T13:41:24.055Z,101434.32
2018-07-26T13:43:52.643Z,101436.04
2018-07-26T13:46:21.186Z,101431.64
2018-07-26T13:48:49.786Z,101424.32
2018-07-26T13:51:18.427Z,101432.31
2018-07-26T13:53:46.944Z,101430.63
2018-07-26T13:56:15.604Z,101430.95
2018-07-26T13:58:44.143Z,101431.95
2018-07-26T14:01:12.689Z,101424.48
2018-07-26T14:03:41.399Z,101432.67
2018-07-26T14:06:10.055Z,101434.70
2018-07-26T14:08:38.643Z,101434.88
2018-07-26T14:11:07.245Z,101430.63
2018-07-26T14:13:35.993Z,101424.14
2018-07-26T14:16:04.788Z,101427.20
2018-07-26T14:18:33.363Z,101431.28
2018-07-26T14:21:01.945Z,101435.89
2018-07-26T14:23:35.703Z,101430.78
2018-07-26T14:26:04.435Z,101426.81
2018-07-26T14:28:33.120Z,101427.80
2018-07-26T14:31:01.626Z,101429.33
2018-07-26T14:33:30.126Z,101426.84
2018-07-26T14:35:58.708Z,101432.27
2018-07-26T14:38:27.290Z,101426.63
2018-07-26T14:40:56.140Z,101427.97
2018-07-26T14:43:24.869Z,101430.37
2018-07-26T14:45:53.508Z,101424.77
2018-07-26T14:48:22.126Z,101428.48
2018-07-26T14:50:51.595Z,101433.94
2018-07-26T14:53:20.097Z,101433.05
2018-07-26T14:55:48.715Z,101431.70
2018-07-26T14:58:17.345Z,101430.50
2018-07-26T15:00:45.847Z,101436.61
2018-07-26T15:03:14.509Z,101433.59
2018-07-26T15:05:43.654Z,101431.52
2018-07-26T15:08:12.280Z,101430.16
2018-07-26T15:10:40.977Z,101428.81
2018-07-26T15:13:09.606Z,101423.68
2018-07-26T15:15:38.244Z,101426.23
2018-07-26T15:18:06.902Z,101422.34
2018-07-26T15:20:35.679Z,101420.66
2018-07-26T15:23:04.254Z,101427.45
2018-07-26T15:25:32.954Z,101427.47
2018-07-26T15:28:01.572Z,101428.48
2018-07-26T15:30:30.078Z,101431.38
2018-07-26T15:32:59.058Z,101430.84
2018-07-26T15:35:27.619Z,101436.45
2018-07-26T15:37:56.720Z,101432.20
2018-07-26T15:40:25.230Z,101440.34
2018-07-26T15:42:53.926Z,101433.91
2018-07-26T15:45:22.570Z,101429.81
2018-07-26T15:47:51.191Z,101435.30
2018-07-26T15:50:19.944Z,101440.06
2018-07-26T15:52:48.627Z,101431.87
2018-07-26T15:55:17.152Z,101432.55
2018-07-26T15:57:46.578Z,101429.81
2018-07-26T16:00:15.199Z,101434.23
2018-07-26T16:02:43.851Z,101429.83
2018-07-26T16:05:12.522Z,101431.17
2018-07-26T16:07:41.149Z,101425.76
2018-07-26T16:10:10.207Z,101424.78
2018-07-26T16:12:39.139Z,101431.36
2018-07-26T16:15:09.713Z,101426.57
2018-07-26T16:17:38.491Z,101424.39
2018-07-26T16:20:08.814Z,101426.58
2018-07-26T16:22:37.435Z,101419.64
2018-07-26T16:25:07.951Z,101429.51
2018-07-26T16:27:36.734Z,101422.44
2018-07-26T16:30:07.730Z,101424.83
2018-07-26T16:32:36.487Z,101421.41
2018-07-26T16:35:05.686Z,101429.25
2018-07-26T16:37:34.231Z,101419.87
2018-07-26T16:40:02.872Z,101423.94
2018-07-26T16:42:31.548Z,101422.11
2018-07-26T16:45:00.133Z,101421.06
2018-07-26T16:47:28.670Z,101420.20
2018-07-26T16:49:57.606Z,101424.14
2018-07-26T16:52:26.237Z,101419.05
2018-07-26T16:54:54.872Z,101426.17
2018-07-26T16:57:23.558Z,101427.89
2018-07-26T16:59:52.351Z,101427.59
2018-07-26T17:02:20.971Z,101427.89
2018-07-26T17:04:49.646Z,101432.32
2018-07-26T17:07:18.298Z,101422.45
2018-07-26T17:09:47.078Z,101419.75
2018-07-26T17:12:15.669Z,101422.50
2018-07-26T17:14:44.300Z,101413.98
2018-07-26T17:17:12.851Z,101422.45
2018-07-26T17:19:41.519Z,101416.39
2018-07-26T17:22:10.205Z,101423.83
2018-07-26T17:24:38.820Z,101424.17
2018-07-26T17:27:07.415Z,101419.41
2018-07-26T17:29:36.057Z,101414.86
2018-07-26T17:32:04.701Z,101401.28
2018-07-26T17:34:33.247Z,101419.09
2018-07-26T17:37:01.804Z,101411.64
2018-07-26T17:39:30.390Z,101413.98
2018-07-26T17:41:58.911Z,101424.19
2018-07-26T17:44:27.902Z,101419.41
2018-07-26T17:46:56.547Z,101428.22
2018-07-26T17:49:25.133Z,101422.77
2018-07-26T17:51:53.713Z,101415.66
2018-07-26T17:54:22.341Z,101421.75
2018-07-26T17:56:51.151Z,101421.72
2018-07-26T17:59:20.489Z,101414.61
2018-07-26T18:01:49.951Z,101412.20
2018-07-26T18:04:18.591Z,101419.14
2018-07-26T18:06:47.260Z,101419.31
2018-07-26T18:09:15.942Z,101416.56
2018-07-26T18:11:45.241Z,101412.82
2018-07-26T18:14:13.825Z,101411.72
2018-07-26T18:16:42.409Z,101412.69
2018-07-26T18:19:11.035Z,101415.67
2018-07-26T18:21:40.087Z,101410.94
2018-07-26T18:24:08.976Z,101410.88
2018-07-26T18:26:37.663Z,101410.11
2018-07-26T18:29:06.357Z,101408.36
2018-07-26T18:31:35.022Z,101412.03
2018-07-26T18:34:03.538Z,101417.77
2018-07-26T18:36:32.198Z,101414.52
2018-07-26T18:39:00.858Z,101417.66
2018-07-26T18:41:29.466Z,101417.27
2018-07-26T18:43:58.189Z,101424.64
2018-07-26T18:46:26.795Z,101423.23
2018-07-26T18:48:55.343Z,101420.48
2018-07-26T18:51:24.002Z,101427.16
2018-07-26T18:53:52.585Z,101425.75
2018-07-26T18:56:21.463Z,101430.02
2018-07-26T18:58:50.061Z,101427.25
2018-07-26T19:01:18.671Z,101432.91
2018-07-26T19:03:47.327Z,101433.88
2018-07-26T19:06:16.217Z,101431.79
2018-07-26T19:08:44.869Z,101434.27
2018-07-26T19:11:13.485Z,101435.41
2018-07-26T19:13:42.015Z,101439.91
2018-07-26T19:16:10.651Z,101437.63
2018-07-26T19:18:39.234Z,101441.42
2018-07-26T19:21:08.481Z,101437.96
2018-07-26T19:23:37.171Z,101439.42
2018-07-26T19:26:06.055Z,101445.39
2018-07-26T19:28:34.591Z,101450.14
2018-07-26T19:31:03.335Z,101449.15
2018-07-26T19:33:31.962Z,101444.63
2018-07-26T19:36:00.601Z,101449.64
2018-07-26T19:38:29.332Z,101449.81
2018-07-26T19:40:57.975Z,101445.62
2018-07-26T19:43:26.495Z,101449.91
2018-07-26T19:45:55.733Z,101449.77
2018-07-26T19:48:24.422Z,101451.98
2018-07-26T19:50:53.065Z,101452.27
2018-07-26T19:53:21.605Z,101461.48
2018-07-26T19:55:50.268Z,101461.52
2018-07-26T19:58:18.963Z,101456.73
2018-07-26T20:00:47.559Z,101457.70
2018-07-26T20:03:16.288Z,101459.86
2018-07-26T20:05:44.982Z,101458.31
2018-07-26T20:08:13.560Z,101458.41
2018-07-26T20:10:42.163Z,101465.11
2018-07-26T20:13:11.541Z,101461.41
2018-07-26T20:15:40.182Z,101465.64
2018-07-26T20:18:08.867Z,101466.23
2018-07-26T20:20:38.199Z,101458.11
2018-07-26T20:23:07.002Z,101464.05
2018-07-26T20:25:39.683Z,101464.34
2018-07-26T20:28:08.733Z,101472.94
2018-07-26T20:30:37.299Z,101470.09
2018-07-26T20:33:06.145Z,101477.95
2018-07-26T20:35:34.782Z,101473.09
2018-07-26T20:38:03.516Z,101483.67
2018-07-26T20:40:32.199Z,101474.41
2018-07-26T20:43:00.755Z,101472.49
2018-07-26T20:45:29.364Z,101473.66
2018-07-26T20:47:58.056Z,101474.04
2018-07-26T20:50:26.642Z,101477.50
2018-07-26T20:52:55.362Z,101476.92
2018-07-26T20:55:23.938Z,101472.44
2018-07-26T20:57:52.591Z,101475.02
2018-07-26T21:00:21.784Z,101475.91
2018-07-26T21:02:50.318Z,101478.00
2018-07-26T21:05:18.879Z,101478.11
2018-07-26T21:07:47.532Z,101472.53
2018-07-26T21:10:16.119Z,101472.28
2018-07-26T21:12:44.802Z,101476.41
2018-07-26T21:15:13.472Z,101477.51
2018-07-26T21:17:42.011Z,101476.30
2018-07-26T21:20:10.571Z,101470.20
2018-07-26T21:22:39.742Z,101475.93
2018-07-26T21:25:08.540Z,101472.03
2018-07-26T21:27:37.119Z,101475.80
2018-07-26T21:30:06.645Z,101476.40
2018-07-26T21:32:35.927Z,101469.34
2018-07-26T21:35:06.067Z,101477.86
2018-07-26T21:37:34.740Z,101473.33
2018-07-26T21:40:03.511Z,101476.02
2018-07-26T21:42:32.304Z,101477.31
2018-07-26T21:45:00.807Z,101471.45
2018-07-26T21:47:29.306Z,101479.56
2018-07-26T21:49:57.894Z,101474.08
2018-07-26T21:52:26.530Z,101481.13
2018-07-26T21:54:55.357Z,101484.05
2018-07-26T21:57:24.002Z,101483.44
2018-07-26T21:59:52.539Z,101485.25
2018-07-26T22:02:21.183Z,101477.67
2018-07-26T22:04:50.161Z,101484.95
2018-07-26T22:07:18.899Z,101486.16
2018-07-26T22:09:47.601Z,101493.45
2018-07-26T22:12:16.171Z,101493.32
2018-07-26T22:14:44.832Z,101499.27
2018-07-26T22:17:13.381Z,101490.36
2018-07-26T22:19:42.084Z,101500.60
2018-07-26T22:22:11.425Z,101494.89
2018-07-26T22:24:39.986Z,101502.70
2018-07-26T22:27:08.533Z,101498.05
2018-07-26T22:29:37.042Z,101499.67
2018-07-26T22:32:05.803Z,101502.95
2018-07-26T22:34:34.439Z,101502.48
2018-07-26T22:37:03.071Z,101504.80
2018-07-26T22:39:31.653Z,101512.20
2018-07-26T22:42:00.229Z,101514.13
2018-07-26T22:44:28.819Z,101520.82
2018-07-26T22:46:57.401Z,101524.84
2018-07-26T22:49:26.047Z,101527.74
2018-07-26T22:51:54.670Z,101526.27
2018-07-26T22:54:23.245Z,101525.77
2018-07-26T22:56:51.874Z,101527.92
2018-07-26T22:59:20.434Z,101531.80
2018-07-26T23:01:49.207Z,101532.97
2018-07-26T23:04:17.730Z,101537.61
2018-07-26T23:06:46.303Z,101532.48
2018-07-26T23:09:14.876Z,101539.17
2018-07-26T23:11:43.688Z,101536.32
2018-07-26T23:14:12.329Z,101529.13
2018-07-26T23:16:41.012Z,101533.33
2018-07-26T23:19:09.595Z,101534.14
2018-07-26T23:21:38.190Z,101533.77
2018-07-26T23:24:06.867Z,101537.90
2018-07-26T23:26:35.503Z,101539.13
2018-07-26T23:29:05.222Z,101536.45
2018-07-26T23:31:33.827Z,101535.44
2018-07-26T23:34:02.424Z,101533.45
2018-07-26T23:36:32.031Z,101523.95
2018-07-26T23:39:00.716Z,101526.27
2018-07-26T23:41:29.814Z,101529.63
2018-07-26T23:43:58.497Z,101530.32
2018-07-26T23:46:27.182Z,101531.98
2018-07-26T23:48:55.707Z,101526.02
2018-07-26T23:51:25.066Z,101529.13
2018-07-26T23:53:53.750Z,101531.27
2018-07-26T23:56:22.368Z,101528.80
2018-07-26T23:58:52.043Z,101477.18
